createdAt,value
2022-09-20T00:01:53.768Z,3.67
2022-09-20T00:04:21.199Z,4.05
2022-09-20T00:06:48.636Z,4.95
2022-09-20T00:09:16.116Z,4.40
2022-09-20T00:11:45.283Z,4.50
2022-09-20T00:14:14.028Z,4.70
2022-09-20T00:16:42.140Z,5.40
2022-09-20T00:19:10.288Z,4.28
2022-09-20T00:21:37.776Z,5.25
2022-09-20T00:24:05.913Z,5.85
2022-09-20T00:26:33.670Z,4.70
2022-09-20T00:29:01.300Z,4.88
2022-09-20T00:31:30.117Z,5.57
2022-09-20T00:34:15.868Z,4.57
2022-09-20T00:36:44.101Z,4.97
2022-09-20T00:39:13.690Z,4.57
2022-09-20T00:41:41.155Z,4.53
2022-09-20T00:44:42.020Z,5.10
2022-09-20T00:47:17.004Z,4.70
2022-09-20T00:49:44.484Z,4.35
2022-09-20T00:52:12.249Z,4.67
2022-09-20T00:54:39.710Z,4.70
2022-09-20T00:57:07.243Z,4.50
2022-09-20T00:59:38.032Z,4.45
2022-09-20T01:02:09.808Z,4.47
2022-09-20T01:04:40.293Z,4.50
2022-09-20T01:07:10.084Z,4.47
2022-09-20T01:09:37.718Z,4.72
2022-09-20T01:12:10.352Z,5.30
2022-09-20T01:14:37.876Z,5.30
2022-09-20T01:17:07.278Z,5.27
2022-09-20T01:19:44.087Z,5.60
2022-09-20T01:22:19.211Z,5.47
2022-09-20T01:24:53.482Z,5.22
2022-09-20T01:27:27.720Z,5.38
2022-09-20T01:30:06.002Z,4.93
2022-09-20T01:32:43.828Z,5.03
2022-09-20T01:35:14.219Z,4.50
2022-09-20T01:37:51.255Z,5.00
2022-09-20T01:40:28.638Z,5.47
2022-09-20T01:43:07.114Z,4.30
2022-09-20T01:45:36.110Z,4.82
2022-09-20T01:48:14.473Z,4.43
2022-09-20T01:51:07.405Z,4.55
2022-09-20T01:54:05.451Z,3.92
2022-09-20T01:56:57.662Z,4.87
2022-09-20T01:59:46.520Z,4.18
2022-09-20T02:02:45.611Z,5.40
2022-09-20T02:05:44.146Z,4.82
2022-09-20T02:08:41.320Z,4.47
2022-09-20T02:11:14.393Z,3.57
2022-09-20T02:14:05.259Z,5.00
2022-09-20T02:16:49.521Z,4.57
2022-09-20T02:20:04.253Z,4.85
2022-09-20T02:22:45.786Z,3.97
2022-09-20T02:25:24.783Z,5.27
2022-09-20T02:28:14.593Z,4.75
2022-09-20T02:30:52.182Z,5.20
2022-09-20T02:33:44.155Z,4.20
2022-09-20T02:36:29.012Z,4.50
2022-09-20T02:39:03.815Z,4.23
2022-09-20T02:41:52.480Z,5.03
2022-09-20T02:44:29.490Z,4.55
2022-09-20T02:47:07.662Z,4.82
2022-09-20T02:49:46.082Z,5.40
2022-09-20T02:52:24.210Z,5.40
2022-09-20T02:54:59.858Z,5.28
2022-09-20T02:57:37.478Z,5.43
2022-09-20T03:00:08.100Z,5.32
2022-09-20T03:02:51.205Z,5.40
2022-09-20T03:05:25.267Z,3.83
2022-09-20T03:08:05.212Z,4.63
2022-09-20T03:10:38.361Z,4.65
2022-09-20T03:13:19.045Z,4.65
2022-09-20T03:15:58.068Z,5.13
2022-09-20T03:18:35.546Z,4.53
2022-09-20T03:21:26.735Z,4.47
2022-09-20T03:24:06.448Z,4.65
2022-09-20T03:26:44.917Z,4.50
2022-09-20T03:29:26.988Z,4.85
2022-09-20T03:32:08.387Z,4.67
2022-09-20T03:34:47.996Z,4.93
2022-09-20T03:37:39.428Z,4.53
2022-09-20T03:40:30.189Z,4.22
2022-09-20T03:43:06.577Z,4.20
2022-09-20T03:45:52.865Z,3.90
2022-09-20T03:48:37.986Z,3.90
2022-09-20T03:51:13.961Z,4.15
2022-09-20T03:54:11.052Z,4.30
2022-09-20T03:57:10.415Z,3.15
2022-09-20T03:59:56.207Z,4.23
2022-09-20T04:02:57.698Z,4.13
2022-09-20T04:05:35.787Z,4.15
2022-09-20T04:08:14.564Z,4.10
2022-09-20T04:10:54.064Z,3.80
2022-09-20T04:13:35.799Z,3.30
2022-09-20T04:16:15.672Z,3.00
2022-09-20T04:18:47.543Z,3.03
2022-09-20T04:21:23.613Z,3.08
2022-09-20T04:23:58.038Z,3.17
2022-09-20T04:26:28.916Z,3.07
2022-09-20T04:29:16.631Z,3.03
2022-09-20T04:31:53.944Z,2.60
2022-09-20T04:34:47.296Z,3.40
2022-09-20T04:37:26.446Z,2.58
2022-09-20T04:40:05.608Z,2.47
2022-09-20T04:43:12.216Z,2.67
2022-09-20T04:46:09.702Z,3.45
2022-09-20T04:49:05.953Z,2.92
2022-09-20T04:52:19.192Z,2.65
2022-09-20T04:55:20.739Z,2.73
2022-09-20T04:58:25.685Z,2.47
2022-09-20T05:01:31.637Z,3.00
2022-09-20T05:04:30.145Z,2.65
2022-09-20T05:07:21.987Z,2.97
2022-09-20T05:10:17.376Z,3.53
2022-09-20T05:13:13.446Z,3.22
2022-09-20T05:15:46.019Z,3.35
2022-09-20T05:18:50.873Z,3.35
2022-09-20T05:21:35.265Z,3.95
2022-09-20T05:24:22.083Z,3.33
2022-09-20T05:27:05.580Z,3.80
2022-09-20T05:29:42.336Z,2.85
2022-09-20T05:32:18.983Z,3.25
2022-09-20T05:34:56.301Z,3.40
2022-09-20T05:37:33.579Z,3.47
2022-09-20T05:40:07.090Z,3.83
2022-09-20T05:42:41.832Z,3.50
2022-09-20T05:45:24.418Z,3.53
2022-09-20T05:47:59.465Z,3.92
2022-09-20T05:50:47.239Z,4.03
2022-09-20T05:53:35.047Z,4.50
2022-09-20T05:56:12.673Z,3.95
2022-09-20T05:59:01.959Z,3.55
2022-09-20T06:01:35.067Z,3.55
2022-09-20T06:04:13.604Z,3.80
2022-09-20T06:06:53.292Z,3.83
2022-09-20T06:09:36.255Z,4.90
2022-09-20T06:12:23.081Z,3.95
2022-09-20T06:15:01.737Z,2.85
2022-09-20T06:17:34.123Z,4.17
2022-09-20T06:20:16.038Z,4.50
2022-09-20T06:22:48.937Z,4.57
2022-09-20T06:25:22.613Z,4.57
2022-09-20T06:27:54.715Z,3.70
2022-09-20T06:30:25.915Z,4.70
2022-09-20T06:32:55.348Z,4.47
2022-09-20T06:35:26.083Z,5.07
2022-09-20T06:38:18.552Z,4.18
2022-09-20T06:41:15.154Z,3.88
2022-09-20T06:43:42.947Z,4.43
2022-09-20T06:46:10.510Z,3.28
2022-09-20T06:48:39.796Z,3.95
2022-09-20T06:51:08.262Z,3.83
2022-09-20T06:53:40.186Z,4.93
2022-09-20T06:56:10.299Z,3.93
2022-09-20T06:58:37.730Z,3.60
2022-09-20T07:01:05.306Z,3.13
2022-09-20T07:03:32.788Z,2.90
2022-09-20T07:06:01.050Z,4.25
2022-09-20T07:08:28.655Z,3.80
2022-09-20T07:10:57.419Z,2.88
2022-09-20T07:13:25.170Z,3.38
2022-09-20T07:15:52.606Z,3.75
2022-09-20T07:18:20.026Z,3.15
2022-09-20T07:20:47.704Z,3.40
2022-09-20T07:23:15.813Z,3.45
2022-09-20T07:25:43.264Z,3.95
2022-09-20T07:28:12.024Z,2.42
2022-09-20T07:30:39.476Z,2.00
2022-09-20T07:33:07.582Z,2.57
2022-09-20T07:35:36.187Z,2.60
2022-09-20T07:38:03.941Z,2.53
2022-09-20T07:40:31.930Z,1.80
2022-09-20T07:42:59.394Z,1.88
2022-09-20T07:45:28.501Z,3.20
2022-09-20T07:47:58.078Z,1.05
2022-09-20T07:50:25.499Z,2.10
2022-09-20T07:52:52.876Z,1.45
2022-09-20T07:55:20.269Z,1.55
2022-09-20T07:57:47.691Z,1.50
2022-09-20T08:00:15.878Z,1.60
2022-09-20T08:02:45.302Z,1.17
2022-09-20T08:05:12.827Z,0.70
2022-09-20T08:07:40.304Z,0.60
2022-09-20T08:10:08.684Z,0.80
2022-09-20T08:15:25.797Z,0.80
2022-09-20T08:17:54.655Z,0.60
2022-09-20T08:20:22.133Z,0.50
2022-09-20T08:23:06.265Z,0.70
2022-09-20T08:25:38.225Z,0.70
2022-09-20T08:28:05.647Z,0.68
2022-09-20T08:30:33.063Z,0.40
2022-09-20T08:33:04.800Z,0.63
2022-09-20T08:35:32.267Z,0.60
2022-09-20T08:39:57.189Z,0.57
2022-09-20T08:40:49.270Z,0.90
2022-09-20T08:43:22.284Z,0.52
2022-09-20T08:45:50.192Z,0.70
2022-09-20T08:48:21.650Z,0.50
2022-09-20T08:50:49.473Z,0.40
2022-09-20T08:53:21.444Z,0.82
2022-09-20T08:55:49.479Z,0.57
2022-09-20T08:58:17.115Z,0.70
2022-09-20T09:00:47.681Z,0.50
2022-09-20T09:03:17.831Z,0.40
2022-09-20T09:05:48.424Z,0.50
2022-09-20T09:08:19.416Z,0.65
2022-09-20T09:10:54.551Z,0.50
2022-09-20T09:13:27.341Z,0.40
2022-09-20T09:15:58.510Z,0.40
2022-09-20T09:18:33.871Z,0.40
2022-09-20T09:21:05.128Z,0.73
2022-09-20T09:23:41.197Z,0.32
2022-09-20T09:26:17.850Z,0.43
2022-09-20T09:28:45.328Z,0.52
2022-09-20T09:31:15.832Z,0.45
2022-09-20T09:33:46.957Z,0.75
2022-09-20T09:36:17.469Z,0.60
2022-09-20T09:38:47.073Z,0.40
2022-09-20T09:41:26.061Z,0.77
2022-09-20T09:44:00.971Z,0.98
2022-09-20T09:46:33.195Z,0.60
2022-09-20T09:49:12.502Z,0.60
2022-09-20T09:51:43.884Z,0.40
2022-09-20T09:54:19.800Z,0.30
2022-09-20T09:56:57.818Z,0.60
2022-09-20T09:59:49.155Z,0.65
2022-09-20T10:02:35.017Z,0.32
2022-09-20T10:05:13.047Z,0.40
2022-09-20T10:07:49.044Z,0.32
2022-09-20T10:10:29.139Z,0.40
2022-09-20T10:13:09.642Z,0.50
2022-09-20T10:15:45.787Z,0.40
2022-09-20T10:18:24.044Z,0.50
2022-09-20T10:21:00.420Z,0.50
2022-09-20T10:24:02.474Z,0.30
2022-09-20T10:26:45.008Z,0.50
2022-09-20T10:29:26.116Z,0.40
2022-09-20T10:32:04.023Z,0.40
2022-09-20T10:34:50.851Z,0.50
2022-09-20T10:37:25.459Z,0.60
2022-09-20T10:40:04.131Z,0.50
2022-09-20T10:42:58.791Z,0.50
2022-09-20T10:48:28.340Z,0.70
2022-09-20T10:51:00.795Z,0.60
2022-09-20T10:53:39.210Z,0.60
2022-09-20T10:56:24.723Z,0.50
2022-09-20T10:59:23.071Z,0.70
2022-09-20T11:02:06.643Z,0.73
2022-09-20T11:05:07.751Z,1.08
2022-09-20T11:07:50.897Z,0.70
2022-09-20T11:10:24.201Z,0.60
2022-09-20T11:13:00.367Z,0.60
2022-09-20T11:15:33.316Z,0.70
2022-09-20T11:18:10.615Z,0.90
2022-09-20T11:20:44.849Z,0.70
2022-09-20T11:23:18.181Z,0.65
2022-09-20T11:25:51.607Z,0.50
2022-09-20T11:28:26.254Z,0.73
2022-09-20T11:31:01.153Z,0.60
2022-09-20T11:33:31.973Z,0.90
2022-09-20T11:36:02.780Z,0.70
2022-09-20T11:38:36.732Z,0.97
2022-09-20T11:41:12.680Z,0.88
2022-09-20T11:43:44.272Z,0.95
2022-09-20T11:46:15.624Z,0.70
2022-09-20T11:48:47.110Z,0.90
2022-09-20T11:52:04.259Z,1.07
2022-09-20T11:54:49.540Z,0.80
2022-09-20T11:57:17.578Z,0.90
2022-09-20T11:59:53.761Z,0.70
2022-09-20T12:02:27.214Z,1.13
2022-09-20T12:04:55.815Z,0.80
2022-09-20T12:07:26.607Z,0.60
2022-09-20T12:09:58.086Z,0.60
2022-09-20T12:12:37.447Z,1.30
2022-09-20T12:15:22.682Z,1.35
2022-09-20T12:18:09.409Z,0.70
2022-09-20T12:21:14.999Z,0.85
2022-09-20T12:24:24.822Z,1.08
2022-09-20T12:26:56.630Z,0.60
2022-09-20T12:30:15.896Z,0.50
2022-09-20T12:32:54.050Z,1.10
2022-09-20T12:36:01.032Z,0.82
2022-09-20T12:38:48.878Z,0.73
2022-09-20T12:41:27.887Z,0.82
2022-09-20T12:44:02.490Z,0.55
2022-09-20T12:46:36.871Z,0.67
2022-09-20T12:49:48.830Z,0.38
2022-09-20T12:52:47.026Z,0.90
2022-09-20T12:55:40.443Z,1.05
2022-09-20T12:58:20.934Z,0.90
2022-09-20T13:00:51.093Z,1.10
2022-09-20T13:03:28.639Z,0.88
2022-09-20T13:06:25.478Z,0.82
2022-09-20T13:08:58.855Z,0.98
2022-09-20T13:11:31.132Z,1.30
2022-09-20T13:14:02.118Z,0.83
2022-09-20T13:16:33.055Z,0.98
2022-09-20T13:19:05.462Z,1.58
2022-09-20T13:21:37.658Z,1.30
2022-09-20T13:24:06.456Z,1.10
2022-09-20T13:26:36.966Z,1.27
2022-09-20T13:29:09.925Z,1.23
2022-09-20T13:31:38.030Z,1.38
2022-09-20T13:34:25.718Z,1.00
2022-09-20T13:36:58.050Z,1.27
2022-09-20T13:39:36.294Z,2.17
2022-09-20T13:42:09.082Z,1.60
2022-09-20T13:44:37.273Z,2.10
2022-09-20T13:47:22.700Z,1.30
2022-09-20T13:49:50.547Z,2.28
2022-09-20T13:52:27.344Z,3.00
2022-09-20T13:54:56.043Z,2.53
2022-09-20T13:57:27.257Z,2.00
2022-09-20T13:59:56.983Z,1.77
2022-09-20T14:02:30.220Z,2.67
2022-09-20T14:05:00.548Z,1.50
2022-09-20T14:07:30.938Z,1.48
2022-09-20T14:09:59.492Z,1.48
2022-09-20T14:12:28.294Z,1.00
2022-09-20T14:14:56.254Z,1.48
2022-09-20T14:17:25.401Z,1.30
2022-09-20T14:19:55.351Z,1.50
2022-09-20T14:22:27.142Z,1.30
2022-09-20T14:25:01.306Z,1.23
2022-09-20T14:27:30.993Z,1.40
2022-09-20T14:29:58.532Z,1.40
2022-09-20T14:32:40.417Z,2.03
2022-09-20T14:35:15.956Z,2.20
2022-09-20T14:37:45.289Z,1.95
2022-09-20T14:40:28.438Z,1.75
2022-09-20T14:42:58.715Z,2.17
2022-09-20T14:45:30.522Z,1.02
2022-09-20T14:48:06.736Z,1.10
2022-09-20T14:50:39.940Z,1.38
2022-09-20T14:53:22.743Z,1.30
2022-09-20T14:56:00.667Z,1.67
2022-09-20T14:58:28.391Z,1.40
2022-09-20T15:01:01.429Z,1.25
2022-09-20T15:03:31.871Z,1.98
2022-09-20T15:05:59.700Z,1.52
2022-09-20T15:08:28.168Z,1.47
2022-09-20T15:10:55.717Z,1.10
2022-09-20T15:13:24.456Z,1.50
2022-09-20T15:15:54.211Z,1.33
2022-09-20T15:18:23.195Z,1.30
2022-09-20T15:20:50.903Z,1.17
2022-09-20T15:23:18.415Z,1.15
2022-09-20T15:25:46.154Z,1.08
2022-09-20T15:28:16.651Z,0.93
2022-09-20T15:30:46.085Z,1.10
2022-09-20T15:33:14.680Z,0.90
2022-09-20T15:35:43.755Z,0.82
2022-09-20T15:38:12.032Z,0.80
2022-09-20T15:40:40.840Z,1.10
2022-09-20T15:43:09.355Z,1.50
2022-09-20T15:45:37.678Z,1.10
2022-09-20T15:48:08.267Z,1.70
2022-09-20T15:50:35.696Z,1.08
2022-09-20T15:53:03.288Z,1.52
2022-09-20T15:55:30.717Z,1.30
2022-09-20T15:57:58.124Z,0.80
2022-09-20T16:00:25.555Z,2.45
2022-09-20T16:02:52.979Z,1.30
2022-09-20T16:05:21.726Z,0.80
2022-09-20T16:07:49.133Z,0.98
2022-09-20T16:10:16.783Z,0.97
2022-09-20T16:12:44.195Z,1.00
2022-09-20T16:15:12.028Z,0.90
2022-09-20T16:17:57.002Z,1.35
2022-09-20T16:20:25.779Z,1.05
2022-09-20T16:22:53.187Z,0.87
2022-09-20T16:25:20.825Z,1.75
2022-09-20T16:27:48.272Z,1.05
2022-09-20T16:30:15.942Z,0.65
2022-09-20T16:32:43.407Z,1.73
2022-09-20T16:35:11.162Z,0.93
2022-09-20T16:37:39.935Z,2.78
2022-09-20T16:40:10.593Z,1.00
2022-09-20T16:42:38.910Z,5.05
2022-09-20T16:45:07.328Z,0.50
2022-09-20T16:47:36.849Z,1.20
2022-09-20T16:50:04.606Z,0.90
2022-09-20T16:52:32.003Z,0.70
2022-09-20T16:55:03.203Z,0.70
2022-09-20T16:57:31.903Z,1.25
2022-09-20T16:59:59.543Z,0.80
2022-09-20T17:02:26.933Z,1.52
2022-09-20T17:04:54.607Z,1.88
2022-09-20T17:07:24.187Z,0.80
2022-09-20T17:09:51.918Z,0.65
2022-09-20T17:12:23.252Z,13.03
2022-09-20T17:14:50.688Z,3.05
2022-09-20T17:17:21.864Z,1.95
2022-09-20T17:19:49.261Z,3.45
2022-09-20T17:22:16.956Z,1.00
2022-09-20T17:24:44.348Z,1.53
2022-09-20T17:27:12.705Z,1.52
2022-09-20T17:29:41.546Z,0.90
2022-09-20T17:32:08.994Z,1.05
2022-09-20T17:34:36.595Z,1.05
2022-09-20T17:37:04.630Z,1.30
2022-09-20T17:39:32.118Z,1.10
2022-09-20T17:41:59.542Z,1.20
2022-09-20T17:44:28.307Z,1.10
2022-09-20T17:46:57.161Z,1.60
2022-09-20T17:49:26.637Z,0.90
2022-09-20T17:51:55.729Z,1.10
2022-09-20T17:54:24.571Z,1.75
2022-09-20T17:56:55.506Z,0.88
2022-09-20T17:59:22.998Z,0.88
2022-09-20T18:01:52.213Z,0.90
2022-09-20T18:04:24.075Z,1.10
2022-09-20T18:06:52.992Z,1.63
2022-09-20T18:09:22.857Z,1.45
2022-09-20T18:11:52.608Z,1.60
2022-09-20T18:14:23.016Z,1.37
2022-09-20T18:16:52.692Z,1.50
2022-09-20T18:19:22.594Z,1.20
2022-09-20T18:21:50.528Z,1.17
2022-09-20T18:24:17.932Z,1.50
2022-09-20T18:26:45.379Z,1.60
2022-09-20T18:29:16.404Z,1.95
2022-09-20T18:31:47.281Z,1.50
2022-09-20T18:34:17.681Z,1.70
2022-09-20T18:36:51.442Z,1.35
2022-09-20T18:39:20.631Z,1.30
2022-09-20T18:41:50.387Z,1.70
2022-09-20T18:44:18.961Z,1.80
2022-09-20T18:46:47.015Z,1.60
2022-09-20T18:49:16.704Z,1.63
2022-09-20T18:51:47.292Z,1.67
2022-09-20T18:54:15.936Z,2.05
2022-09-20T18:56:44.838Z,2.50
2022-09-20T18:59:16.215Z,2.00
2022-09-20T19:01:59.381Z,2.20
2022-09-20T19:04:41.774Z,2.50
2022-09-20T19:07:17.179Z,2.10
2022-09-20T19:09:49.386Z,2.42
2022-09-20T19:12:23.954Z,2.10
2022-09-20T19:15:04.556Z,2.17
2022-09-20T19:18:05.018Z,2.43
2022-09-20T19:20:38.215Z,2.20
2022-09-20T19:23:28.222Z,1.98
2022-09-20T19:26:04.502Z,2.28
2022-09-20T19:28:32.648Z,2.60
2022-09-20T19:31:00.797Z,2.70
2022-09-20T19:33:29.533Z,4.03
2022-09-20T19:35:59.033Z,3.88
2022-09-20T19:38:36.803Z,3.03
2022-09-20T19:41:20.326Z,2.63
2022-09-20T19:44:05.243Z,2.20
2022-09-20T19:46:46.283Z,2.22
2022-09-20T19:49:16.165Z,2.20
2022-09-20T19:51:45.379Z,1.98
2022-09-20T19:54:15.943Z,2.47
2022-09-20T19:56:52.749Z,1.83
2022-09-20T19:59:21.349Z,1.60
2022-09-20T20:01:49.611Z,2.10
2022-09-20T20:04:17.529Z,1.73
2022-09-20T20:06:53.387Z,2.03
2022-09-20T20:09:32.984Z,2.30
2022-09-20T20:12:07.464Z,3.83
2022-09-20T20:14:41.206Z,3.45
2022-09-20T20:17:24.675Z,3.58
2022-09-20T20:20:05.355Z,2.50
2022-09-20T20:22:47.878Z,1.80
2022-09-20T20:25:26.188Z,1.98
2022-09-20T20:27:53.707Z,2.42
2022-09-20T20:30:21.325Z,2.95
2022-09-20T20:32:48.759Z,3.55
2022-09-20T20:35:17.163Z,2.80
2022-09-20T20:37:47.282Z,2.10
2022-09-20T20:40:15.243Z,3.00
2022-09-20T20:42:44.129Z,8.13
2022-09-20T20:45:12.149Z,4.93
2022-09-20T20:47:39.876Z,4.93
2022-09-20T20:50:07.975Z,3.67
2022-09-20T20:52:35.374Z,2.35
2022-09-20T20:55:02.810Z,2.78
2022-09-20T20:57:31.245Z,2.17
2022-09-20T21:00:00.533Z,2.43
2022-09-20T21:02:28.006Z,2.80
2022-09-20T21:04:55.525Z,3.20
2022-09-20T21:07:22.948Z,2.28
2022-09-20T21:09:50.384Z,1.85
2022-09-20T21:12:18.340Z,2.10
2022-09-20T21:14:45.765Z,3.08
2022-09-20T21:17:14.723Z,5.03
2022-09-20T21:19:42.178Z,5.05
2022-09-20T21:22:09.598Z,3.15
2022-09-20T21:24:38.405Z,1.70
2022-09-20T21:27:05.924Z,2.38
2022-09-20T21:29:33.361Z,1.52
2022-09-20T21:32:00.807Z,1.35
2022-09-20T21:34:29.594Z,1.40
2022-09-20T21:36:57.064Z,1.40
2022-09-20T21:39:24.754Z,1.40
2022-09-20T21:41:52.310Z,1.20
2022-09-20T21:44:20.456Z,1.40
2022-09-20T21:46:48.311Z,1.25
2022-09-20T21:49:15.757Z,1.10
2022-09-20T21:51:45.107Z,2.10
2022-09-20T21:54:12.687Z,1.20
2022-09-20T21:56:41.289Z,1.10
2022-09-20T21:59:09.376Z,1.15
2022-09-20T22:01:40.076Z,0.90
2022-09-20T22:04:09.867Z,0.98
2022-09-20T22:06:38.820Z,0.95
2022-09-20T22:09:09.423Z,0.80
2022-09-20T22:11:39.037Z,0.90
2022-09-20T22:14:07.542Z,1.80
2022-09-20T22:16:36.716Z,2.42
2022-09-20T22:19:04.756Z,2.10
2022-09-20T22:21:34.076Z,1.67
2022-09-20T22:24:03.155Z,0.90
2022-09-20T22:26:34.053Z,0.90
2022-09-20T22:29:01.569Z,0.70
2022-09-20T22:31:30.772Z,0.80
2022-09-20T22:33:59.843Z,0.93
2022-09-20T22:36:30.151Z,1.00
2022-09-20T22:38:57.764Z,1.00
2022-09-20T22:41:25.563Z,1.25
2022-09-20T22:43:54.698Z,0.90
2022-09-20T22:46:23.868Z,0.80
2022-09-20T22:48:51.624Z,1.30
2022-09-20T22:51:20.519Z,1.10
2022-09-20T22:53:48.886Z,1.20
2022-09-20T22:56:19.167Z,1.42
2022-09-20T22:58:48.524Z,1.40
2022-09-20T23:01:20.312Z,1.60
2022-09-20T23:03:49.641Z,1.63
2022-09-20T23:06:20.849Z,1.50
2022-09-20T23:08:49.038Z,1.70
2022-09-20T23:11:17.267Z,1.00
2022-09-20T23:13:45.645Z,1.10
2022-09-20T23:16:14.929Z,0.77
2022-09-20T23:18:43.772Z,1.08
2022-09-20T23:21:11.180Z,1.23
2022-09-20T23:23:39.760Z,0.85
2022-09-20T23:26:08.825Z,0.82
2022-09-20T23:28:36.832Z,1.13
2022-09-20T23:31:06.208Z,1.13
2022-09-20T23:33:34.052Z,1.55
2022-09-20T23:36:07.590Z,1.40
2022-09-20T23:38:35.261Z,1.65
2022-09-20T23:41:03.846Z,1.70
2022-09-20T23:43:31.396Z,1.50
2022-09-20T23:45:59.069Z,1.33
2022-09-20T23:48:26.555Z,1.70
2022-09-20T23:50:54.139Z,1.58
2022-09-20T23:53:23.003Z,0.70
2022-09-20T23:55:50.824Z,0.90
2022-09-20T23:58:18.354Z,0.90
